createdAt,value
2024-01-05T00:01:22.775Z,9.00
2024-01-05T00:04:11.123Z,9.00
2024-01-05T00:06:59.645Z,9.00
2024-01-05T00:09:48.084Z,8.90
2024-01-05T00:12:37.196Z,9.00
2024-01-05T00:15:25.606Z,9.00
2024-01-05T00:18:20.011Z,9.00
2024-01-05T00:21:08.190Z,9.00
2024-01-05T00:23:57.507Z,9.00
2024-01-05T00:26:46.103Z,9.00
2024-01-05T00:29:35.376Z,9.00
2024-01-05T00:32:23.641Z,9.00
2024-01-05T00:35:12.361Z,9.00
2024-01-05T00:38:00.694Z,9.00
2024-01-05T00:40:48.590Z,9.00
2024-01-05T00:43:36.907Z,9.00
2024-01-05T00:46:25.602Z,9.00
2024-01-05T00:49:13.657Z,9.00
2024-01-05T00:52:02.082Z,9.00
2024-01-05T00:54:50.210Z,9.00
2024-01-05T00:57:39.976Z,9.00
2024-01-05T01:00:29.268Z,9.00
2024-01-05T01:03:18.023Z,9.00
2024-01-05T01:06:06.407Z,9.00
2024-01-05T01:08:54.741Z,9.00
2024-01-05T01:11:43.121Z,9.00
2024-01-05T01:14:31.254Z,9.00
2024-01-05T01:17:19.504Z,9.00
2024-01-05T01:20:09.848Z,8.90
2024-01-05T01:22:57.781Z,9.00
2024-01-05T01:25:46.042Z,9.00
2024-01-05T01:28:33.934Z,9.00
2024-01-05T01:31:22.049Z,9.00
2024-01-05T01:34:10.249Z,9.00
2024-01-05T01:36:59.344Z,9.00
2024-01-05T01:39:47.388Z,9.00
2024-01-05T01:42:35.744Z,9.00
2024-01-05T01:45:24.011Z,9.00
2024-01-05T01:48:13.315Z,9.10
2024-01-05T01:51:02.361Z,9.10
2024-01-05T01:53:52.853Z,9.00
2024-01-05T01:56:42.098Z,9.00
2024-01-05T01:59:32.515Z,9.10
2024-01-05T02:02:20.620Z,9.10
2024-01-05T02:05:08.974Z,9.10
2024-01-05T02:07:58.126Z,9.10
2024-01-05T02:10:46.815Z,9.10
2024-01-05T02:13:35.241Z,9.10
2024-01-05T02:16:23.523Z,9.10
2024-01-05T02:19:32.103Z,9.10
2024-01-05T02:22:22.337Z,9.10
2024-01-05T02:25:11.390Z,9.10
2024-01-05T02:27:59.742Z,9.10
2024-01-05T02:30:48.657Z,9.10
2024-01-05T02:33:36.812Z,9.10
2024-01-05T02:36:25.399Z,9.20
2024-01-05T02:39:13.815Z,9.10
2024-01-05T02:42:02.435Z,9.10
2024-01-05T02:44:50.445Z,9.10
2024-01-05T02:47:39.177Z,9.10
2024-01-05T02:50:27.657Z,9.10
2024-01-05T02:53:15.920Z,9.10
2024-01-05T02:56:04.713Z,9.10
2024-01-05T02:58:54.172Z,9.10
2024-01-05T03:01:42.373Z,9.00
2024-01-05T03:04:30.402Z,9.00
2024-01-05T03:07:18.522Z,9.00
2024-01-05T03:10:07.579Z,9.00
2024-01-05T03:12:56.131Z,9.00
2024-01-05T03:15:45.660Z,9.00
2024-01-05T03:18:34.215Z,9.00
2024-01-05T03:21:23.416Z,9.00
2024-01-05T03:24:11.376Z,9.00
2024-01-05T03:26:59.418Z,9.00
2024-01-05T03:29:47.292Z,8.90
2024-01-05T03:32:36.397Z,9.00
2024-01-05T03:35:25.033Z,8.90
2024-01-05T03:38:13.249Z,8.90
2024-01-05T03:41:01.996Z,8.90
2024-01-05T03:43:50.387Z,8.90
2024-01-05T03:46:38.391Z,8.80
2024-01-05T03:49:27.067Z,8.80
2024-01-05T03:52:15.818Z,8.80
2024-01-05T03:55:04.497Z,8.70
2024-01-05T03:57:52.556Z,8.70
2024-01-05T04:00:41.567Z,8.60
2024-01-05T04:03:30.177Z,8.60
2024-01-05T04:06:20.180Z,8.60
2024-01-05T04:09:10.151Z,8.60
2024-01-05T04:11:58.772Z,8.60
2024-01-05T04:14:46.680Z,8.60
2024-01-05T04:17:34.817Z,8.50
2024-01-05T04:20:23.096Z,8.50
2024-01-05T04:23:11.793Z,8.50
2024-01-05T04:26:00.629Z,8.50
2024-01-05T04:28:49.192Z,8.50
2024-01-05T04:31:38.326Z,8.50
2024-01-05T04:34:26.344Z,8.50
2024-01-05T04:37:14.961Z,8.50
2024-01-05T04:40:06.415Z,8.50
2024-01-05T04:42:55.821Z,8.50
2024-01-05T04:45:43.735Z,8.50
2024-01-05T04:48:31.824Z,8.50
2024-01-05T04:51:20.059Z,8.50
2024-01-05T04:54:08.892Z,8.50
2024-01-05T04:56:59.053Z,8.50
2024-01-05T04:59:48.304Z,8.50
2024-01-05T05:02:36.213Z,8.50
2024-01-05T05:05:24.104Z,8.40
2024-01-05T05:08:13.880Z,8.40
2024-01-05T05:11:03.247Z,8.40
2024-01-05T05:13:53.829Z,8.40
2024-01-05T05:16:42.034Z,8.40
2024-01-05T05:19:30.090Z,8.40
2024-01-05T05:22:18.345Z,8.30
2024-01-05T05:25:07.879Z,8.30
2024-01-05T05:27:56.186Z,8.30
2024-01-05T05:30:44.994Z,8.30
2024-01-05T05:33:33.117Z,8.30
2024-01-05T05:36:21.212Z,8.30
2024-01-05T05:39:09.910Z,8.20
2024-01-05T05:41:58.134Z,8.20
2024-01-05T05:44:47.065Z,8.20
2024-01-05T05:47:36.260Z,8.20
2024-01-05T05:50:24.553Z,8.20
2024-01-05T05:53:13.383Z,8.10
2024-01-05T05:56:03.026Z,8.10
2024-01-05T05:58:51.313Z,8.10
2024-01-05T06:01:39.332Z,8.10
2024-01-05T06:04:28.773Z,8.10
2024-01-05T06:07:17.893Z,8.10
2024-01-05T06:10:08.503Z,8.10
2024-01-05T06:12:56.750Z,8.10
2024-01-05T06:15:44.808Z,8.00
2024-01-05T06:18:33.505Z,8.00
2024-01-05T06:21:28.094Z,8.00
2024-01-05T06:24:16.329Z,7.90
2024-01-05T06:27:04.947Z,7.90
2024-01-05T06:29:53.158Z,7.90
2024-01-05T06:32:41.651Z,7.90
2024-01-05T06:35:30.846Z,7.80
2024-01-05T06:38:19.880Z,7.80
2024-01-05T06:41:10.946Z,7.80
2024-01-05T06:43:58.859Z,7.80
2024-01-05T06:46:46.830Z,7.80
2024-01-05T06:49:34.985Z,7.80
2024-01-05T06:52:23.525Z,7.70
2024-01-05T06:55:13.330Z,7.70
2024-01-05T06:58:02.245Z,7.70
2024-01-05T07:00:50.842Z,7.80
2024-01-05T07:03:39.175Z,7.70
2024-01-05T07:06:27.904Z,7.80
2024-01-05T07:09:17.371Z,7.70
2024-01-05T07:12:06.982Z,7.80
2024-01-05T07:14:55.306Z,7.70
2024-01-05T07:17:44.081Z,7.70
2024-01-05T07:20:33.233Z,7.70
2024-01-05T07:23:22.550Z,7.70
2024-01-05T07:26:12.488Z,7.70
2024-01-05T07:29:02.655Z,7.70
2024-01-05T07:31:51.012Z,7.70
2024-01-05T07:34:39.083Z,7.70
2024-01-05T07:37:27.689Z,7.70
2024-01-05T07:40:16.787Z,7.70
2024-01-05T07:43:05.081Z,7.70
2024-01-05T07:45:54.487Z,7.70
2024-01-05T07:48:42.785Z,7.60
2024-01-05T07:51:31.296Z,7.70
2024-01-05T07:54:19.439Z,7.70
2024-01-05T07:57:09.471Z,7.70
2024-01-05T07:59:57.536Z,7.60
2024-01-05T08:02:46.781Z,7.60
2024-01-05T08:05:35.058Z,7.60
2024-01-05T08:08:23.139Z,7.60
2024-01-05T08:11:11.408Z,7.60
2024-01-05T08:13:59.475Z,7.70
2024-01-05T08:16:48.475Z,7.70
2024-01-05T08:19:38.109Z,7.70
2024-01-05T08:22:27.017Z,7.70
2024-01-05T08:25:15.316Z,7.80
2024-01-05T08:28:04.404Z,7.80
2024-01-05T08:30:54.787Z,7.80
2024-01-05T08:33:44.731Z,7.90
2024-01-05T08:37:05.520Z,7.90
2024-01-05T08:39:53.739Z,7.90
2024-01-05T08:42:41.992Z,7.90
2024-01-05T08:45:31.711Z,7.90
2024-01-05T08:48:32.969Z,7.90
2024-01-05T08:51:22.398Z,7.90
2024-01-05T08:54:11.452Z,7.90
2024-01-05T08:56:59.808Z,7.90
2024-01-05T08:59:48.469Z,7.90
2024-01-05T09:02:37.164Z,7.90
2024-01-05T09:05:25.419Z,8.00
2024-01-05T09:08:14.137Z,8.00
2024-01-05T09:11:03.093Z,8.00
2024-01-05T09:13:51.541Z,8.00
2024-01-05T09:16:40.367Z,8.10
2024-01-05T09:19:28.954Z,8.10
2024-01-05T09:22:17.496Z,8.10
2024-01-05T09:25:07.187Z,8.20
2024-01-05T09:28:01.736Z,8.40
2024-01-05T09:30:53.899Z,8.50
2024-01-05T09:33:43.813Z,8.60
2024-01-05T09:36:32.954Z,8.80
2024-01-05T09:39:41.217Z,8.90
2024-01-05T09:42:50.496Z,8.90
2024-01-05T09:45:59.561Z,9.00
2024-01-05T09:49:09.272Z,9.00
2024-01-05T09:52:20.090Z,9.00
2024-01-05T09:55:28.366Z,9.10
2024-01-05T09:58:37.351Z,9.10
2024-01-05T10:01:48.874Z,9.10
2024-01-05T10:04:57.175Z,9.10
2024-01-05T10:08:06.949Z,9.10
2024-01-05T10:11:31.672Z,9.20
2024-01-05T10:14:41.057Z,9.20
2024-01-05T10:17:50.205Z,9.30
2024-01-05T10:21:09.662Z,9.50
2024-01-05T10:24:24.322Z,9.70
2024-01-05T10:27:33.047Z,9.90
2024-01-05T10:30:41.718Z,10.10
2024-01-05T10:33:53.799Z,10.40
2024-01-05T10:37:04.649Z,10.60
2024-01-05T10:40:17.885Z,10.80
2024-01-05T10:43:26.803Z,10.90
2024-01-05T10:46:36.752Z,10.90
2024-01-05T10:49:48.798Z,10.80
2024-01-05T10:52:57.480Z,10.80
2024-01-05T10:56:08.412Z,10.80
2024-01-05T10:59:16.355Z,10.90
2024-01-05T11:02:31.779Z,10.90
2024-01-05T11:05:42.827Z,11.10
2024-01-05T11:09:07.661Z,11.20
2024-01-05T11:12:25.886Z,11.30
2024-01-05T11:15:47.851Z,11.30
2024-01-05T11:19:11.303Z,11.30
2024-01-05T11:22:25.286Z,11.30
2024-01-05T11:25:33.237Z,11.40
2024-01-05T11:28:41.319Z,11.60
2024-01-05T11:31:50.953Z,11.80
2024-01-05T11:34:59.436Z,11.90
2024-01-05T11:38:26.830Z,11.90
2024-01-05T11:41:35.016Z,11.70
2024-01-05T11:44:42.979Z,11.60
2024-01-05T11:47:52.094Z,11.50
2024-01-05T11:51:01.101Z,11.50
2024-01-05T11:54:09.987Z,11.70
2024-01-05T11:57:18.087Z,12.10
2024-01-05T12:00:26.035Z,12.70
2024-01-05T12:03:35.169Z,13.30
2024-01-05T12:06:51.695Z,13.60
2024-01-05T12:10:00.577Z,14.00
2024-01-05T12:13:11.230Z,14.10
2024-01-05T12:16:25.639Z,14.20
2024-01-05T12:19:33.909Z,14.00
2024-01-05T12:22:42.557Z,13.70
2024-01-05T12:26:03.577Z,13.50
2024-01-05T12:29:12.772Z,13.20
2024-01-05T12:32:23.480Z,12.90
2024-01-05T12:35:32.841Z,12.70
2024-01-05T12:38:42.086Z,12.40
2024-01-05T12:41:51.098Z,12.30
2024-01-05T12:44:59.038Z,12.10
2024-01-05T12:48:11.090Z,11.90
2024-01-05T12:51:22.404Z,11.80
2024-01-05T12:54:41.163Z,11.70
2024-01-05T12:57:50.279Z,11.50
2024-01-05T13:01:04.302Z,11.50
2024-01-05T13:04:28.268Z,11.40
2024-01-05T13:07:36.521Z,11.40
2024-01-05T13:10:44.674Z,11.30
2024-01-05T13:13:54.097Z,11.20
2024-01-05T13:17:02.804Z,11.20
2024-01-05T13:20:11.552Z,11.20
2024-01-05T13:23:19.790Z,11.10
2024-01-05T13:26:28.574Z,11.10
2024-01-05T13:29:39.465Z,11.10
2024-01-05T13:32:52.412Z,11.10
2024-01-05T13:36:01.338Z,11.10
2024-01-05T13:39:10.831Z,11.10
2024-01-05T13:42:19.995Z,11.00
2024-01-05T13:45:29.138Z,11.00
2024-01-05T13:48:38.242Z,11.00
2024-01-05T13:51:46.129Z,11.00
2024-01-05T13:54:54.905Z,11.00
2024-01-05T13:58:03.827Z,11.00
2024-01-05T14:01:12.863Z,11.00
2024-01-05T14:04:21.338Z,11.00
2024-01-05T14:07:31.169Z,11.00
2024-01-05T14:10:39.996Z,11.00
2024-01-05T14:13:48.451Z,10.90
2024-01-05T14:16:58.019Z,10.90
2024-01-05T14:20:09.229Z,10.90
2024-01-05T14:23:18.165Z,10.90
2024-01-05T14:26:27.909Z,10.90
2024-01-05T14:29:36.141Z,10.90
2024-01-05T14:32:45.568Z,10.80
2024-01-05T14:35:53.820Z,10.80
2024-01-05T14:39:02.850Z,10.80
2024-01-05T14:42:11.062Z,10.80
2024-01-05T14:45:20.175Z,10.80
2024-01-05T14:48:29.405Z,10.80
2024-01-05T14:51:37.320Z,10.80
2024-01-05T14:54:45.477Z,10.80
2024-01-05T14:57:53.953Z,10.70
2024-01-05T15:01:03.554Z,10.70
2024-01-05T15:04:12.357Z,10.70
2024-01-05T15:07:21.453Z,10.60
2024-01-05T15:10:30.595Z,10.60
2024-01-05T15:13:38.799Z,10.50
2024-01-05T15:16:50.114Z,10.60
2024-01-05T15:19:59.499Z,10.50
2024-01-05T15:23:08.388Z,10.50
2024-01-05T15:26:17.195Z,10.50
2024-01-05T15:29:25.980Z,10.40
2024-01-05T15:32:35.089Z,10.40
2024-01-05T15:35:43.896Z,10.50
2024-01-05T15:38:52.290Z,10.40
2024-01-05T15:42:00.499Z,10.40
2024-01-05T15:45:11.022Z,10.40
2024-01-05T15:48:20.441Z,10.50
2024-01-05T15:51:30.482Z,10.50
2024-01-05T15:54:38.774Z,10.50
2024-01-05T15:57:47.506Z,10.50
2024-01-05T16:00:56.022Z,10.50
2024-01-05T16:04:04.274Z,10.50
2024-01-05T16:07:14.109Z,10.50
2024-01-05T16:10:22.129Z,10.40
2024-01-05T16:13:30.316Z,10.40
2024-01-05T16:16:40.305Z,10.40
2024-01-05T16:19:48.809Z,10.40
2024-01-05T16:22:57.654Z,10.40
2024-01-05T16:26:06.968Z,10.40
2024-01-05T16:29:14.986Z,10.40
2024-01-05T16:32:23.632Z,10.30
2024-01-05T16:35:31.598Z,10.30
2024-01-05T16:38:40.872Z,10.30
2024-01-05T16:41:49.041Z,10.30
2024-01-05T16:44:57.232Z,10.30
2024-01-05T16:48:06.630Z,10.30
2024-01-05T16:51:17.670Z,10.20
2024-01-05T16:54:26.775Z,10.20
2024-01-05T16:57:34.925Z,10.20
2024-01-05T17:00:43.563Z,10.20
2024-01-05T17:03:54.213Z,10.10
2024-01-05T17:07:02.509Z,10.10
2024-01-05T17:10:11.350Z,10.10
2024-01-05T17:13:19.514Z,10.10
2024-01-05T17:16:28.131Z,10.00
2024-01-05T17:19:36.598Z,10.00
2024-01-05T17:22:44.820Z,9.90
2024-01-05T17:25:53.804Z,9.90
2024-01-05T17:29:05.207Z,9.80
2024-01-05T17:32:14.758Z,9.80
2024-01-05T17:35:22.517Z,9.80
2024-01-05T17:38:30.345Z,9.80
2024-01-05T17:41:39.545Z,9.70
2024-01-05T17:44:50.654Z,9.70
2024-01-05T17:47:59.920Z,9.70
2024-01-05T17:51:08.648Z,9.60
2024-01-05T17:54:17.575Z,9.60
2024-01-05T17:57:26.356Z,9.60
2024-01-05T18:00:15.433Z,9.60
2024-01-05T18:03:05.896Z,9.50
2024-01-05T18:06:23.184Z,9.50
2024-01-05T18:09:13.075Z,9.50
2024-01-05T18:12:02.194Z,9.50
2024-01-05T18:14:51.905Z,9.50
2024-01-05T18:17:40.095Z,9.50
2024-01-05T18:20:28.303Z,9.50
2024-01-05T18:23:17.874Z,9.50
2024-01-05T18:26:06.714Z,9.50
2024-01-05T18:28:54.976Z,9.40
2024-01-05T18:31:44.352Z,9.40
2024-01-05T18:34:32.635Z,9.30
2024-01-05T18:37:22.001Z,9.30
2024-01-05T18:40:10.711Z,9.20
2024-01-05T18:42:59.459Z,9.10
2024-01-05T18:45:47.783Z,9.10
2024-01-05T18:48:38.444Z,9.10
2024-01-05T18:51:27.593Z,9.10
2024-01-05T18:54:16.625Z,9.10
2024-01-05T18:57:06.094Z,9.00
2024-01-05T18:59:54.406Z,9.10
2024-01-05T19:02:42.671Z,9.10
2024-01-05T19:05:31.541Z,9.10
2024-01-05T19:08:19.616Z,9.10
2024-01-05T19:11:07.787Z,9.10
2024-01-05T19:13:55.881Z,9.10
2024-01-05T19:16:44.280Z,9.10
2024-01-05T19:19:32.766Z,9.10
2024-01-05T19:22:21.715Z,9.20
2024-01-05T19:25:10.078Z,9.10
2024-01-05T19:27:58.897Z,9.20
2024-01-05T19:30:47.381Z,9.10
2024-01-05T19:33:37.876Z,9.10
2024-01-05T19:36:27.252Z,9.10
2024-01-05T19:39:16.920Z,9.10
2024-01-05T19:42:07.660Z,9.10
2024-01-05T19:44:57.412Z,9.00
2024-01-05T19:47:45.927Z,9.00
2024-01-05T19:50:37.404Z,9.00
2024-01-05T19:53:28.327Z,9.00
2024-01-05T19:56:19.925Z,9.00
2024-01-05T19:59:09.292Z,9.00
2024-01-05T20:01:57.237Z,9.00
2024-01-05T20:04:47.567Z,9.00
2024-01-05T20:07:35.352Z,8.90
2024-01-05T20:10:24.793Z,8.90
2024-01-05T20:13:13.691Z,8.90
2024-01-05T20:16:01.843Z,8.90
2024-01-05T20:19:12.464Z,8.90
2024-01-05T20:22:02.289Z,8.90
2024-01-05T20:24:51.500Z,8.90
2024-01-05T20:27:41.519Z,8.90
2024-01-05T20:30:32.024Z,8.80
2024-01-05T20:33:21.229Z,8.80
2024-01-05T20:36:10.127Z,8.80
2024-01-05T20:39:00.927Z,8.80
2024-01-05T20:41:50.301Z,8.80
2024-01-05T20:44:38.513Z,8.80
2024-01-05T20:47:27.439Z,8.80
2024-01-05T20:50:15.790Z,8.80
2024-01-05T20:53:11.441Z,8.80
2024-01-05T20:56:01.866Z,8.80
2024-01-05T20:58:49.867Z,8.80
2024-01-05T21:01:41.821Z,8.80
2024-01-05T21:04:31.640Z,8.80
2024-01-05T21:07:20.414Z,8.80
2024-01-05T21:10:09.330Z,8.80
2024-01-05T21:12:58.376Z,8.80
2024-01-05T21:15:46.658Z,8.80
2024-01-05T21:18:35.112Z,8.80
2024-01-05T21:21:28.061Z,8.80
2024-01-05T21:24:16.534Z,8.80
2024-01-05T21:27:05.149Z,8.80
2024-01-05T21:29:53.503Z,8.80
2024-01-05T21:32:41.666Z,8.80
2024-01-05T21:35:30.744Z,8.80
2024-01-05T21:38:19.516Z,8.80
2024-01-05T21:41:07.653Z,8.90
2024-01-05T21:43:55.948Z,8.90
2024-01-05T21:46:44.420Z,8.90
2024-01-05T21:49:32.941Z,8.90
2024-01-05T21:52:21.425Z,8.90
2024-01-05T21:55:10.285Z,8.90
2024-01-05T21:57:59.321Z,8.90
2024-01-05T22:00:48.055Z,8.90
2024-01-05T22:03:36.533Z,8.90
2024-01-05T22:06:25.498Z,8.80
2024-01-05T22:09:13.735Z,8.90
2024-01-05T22:12:02.965Z,8.80
2024-01-05T22:14:52.343Z,8.80
2024-01-05T22:17:41.104Z,8.80
2024-01-05T22:20:29.420Z,8.80
2024-01-05T22:23:17.551Z,8.70
2024-01-05T22:26:06.877Z,8.80
2024-01-05T22:28:55.794Z,8.70
2024-01-05T22:31:46.395Z,8.70
2024-01-05T22:34:36.576Z,8.70
2024-01-05T22:37:25.362Z,8.70
2024-01-05T22:40:13.433Z,8.70
2024-01-05T22:43:02.067Z,8.70
2024-01-05T22:45:50.962Z,8.60
2024-01-05T22:48:40.251Z,8.60
2024-01-05T22:51:29.946Z,8.60
2024-01-05T22:54:18.417Z,8.60
2024-01-05T22:57:07.050Z,8.50
2024-01-05T22:59:55.608Z,8.50
2024-01-05T23:02:45.719Z,8.50
2024-01-05T23:05:33.959Z,8.40
2024-01-05T23:08:24.129Z,8.40
2024-01-05T23:11:13.409Z,8.40
2024-01-05T23:14:01.690Z,8.30
2024-01-05T23:16:50.352Z,8.30
2024-01-05T23:19:39.713Z,8.30
2024-01-05T23:22:29.233Z,8.30
2024-01-05T23:25:17.548Z,8.30
2024-01-05T23:28:07.024Z,8.30
2024-01-05T23:30:54.908Z,8.20
2024-01-05T23:34:00.591Z,8.20
2024-01-05T23:36:56.238Z,8.20
2024-01-05T23:39:44.410Z,8.20
2024-01-05T23:42:32.443Z,8.20
2024-01-05T23:45:20.759Z,8.20
2024-01-05T23:48:09.878Z,8.20
2024-01-05T23:50:58.129Z,8.10
2024-01-05T23:53:47.300Z,8.10
2024-01-05T23:56:35.940Z,8.10
2024-01-05T23:59:24.146Z,8.10
